Latest Weather Observations for Girilambone

IDN60801

Issued at 1:03 pm EDT Monday 20 November 2017 (issued every 30 minutes, with the page automatically refreshed every 10 minutes)

About weather observations | Map of weather stations | Latest weather observations for NSW | Other Formats
Station Details ID: 051164 Name: GIRILAMBONE (OKEH) AWS Lat: -31.08 Lon: 146.93 Height: 178.0 m
Data from the previous 72 hours. | See also: Recent months at Girilambone
Date/Time
EDT
Temp
°C
App
Temp
°C
Dew
Point
°C
Rel
Hum
%
Delta-T
°C
Wind Press
QNH
hPa
Press
MSL
hPa
Rain since
9am
mm
Dir  Spd
km/h
Gust
km/h
Spd
kts
Gust
kts
20/01:00pm 26.5 - 10.2 36 9.2 - - - - - - - 0.0
20/12:30pm 25.5 - 10.5 39 8.4 - - - - - - - 0.0
20/12:00pm 26.1 - 11.1 39 8.5 - - - - - - - 0.0
20/11:30am 24.9 - 10.8 41 7.9 - - - - - - - 0.0
20/11:00am 24.6 - 10.5 41 7.9 - - - - - - - 0.0
20/10:30am 23.9 - 11.6 46 7.0 - - - - - - - 0.0
20/10:00am 23.7 - 12.0 48 6.7 - - - - - - - 0.0
20/09:30am 22.2 - 11.6 51 6.0 - - - - - - - 0.0
20/09:00am 21.6 - 11.6 53 5.6 - - - - - - - 0.2
20/08:30am 21.0 - 11.6 55 5.3 - - - - - - - 0.2
20/08:00am 20.4 - 12.1 59 4.7 - - - - - - - 0.2
20/07:30am 18.9 - 12.2 65 3.8 - - - - - - - 0.2
20/07:00am 17.8 - 12.5 71 3.0 - - - - - - - 0.2
20/06:30am 16.6 - 12.6 77 2.2 - - - - - - - 0.2
20/06:00am 16.3 - 12.7 79 2.0 - - - - - - - 0.2
20/05:30am 17.0 - 12.5 75 2.5 - - - - - - - 0.2
20/05:00am 18.1 - 12.3 69 3.2 - - - - - - - 0.2
20/04:30am 18.3 - 12.5 69 3.3 - - - - - - - 0.2
20/04:00am 18.7 - 12.5 67 3.5 - - - - - - - 0.2
20/03:30am 18.9 - 12.6 67 3.6 - - - - - - - 0.2
20/03:00am 19.2 - 12.7 66 3.7 - - - - - - - 0.2
20/02:30am 19.2 - 12.9 67 3.6 - - - - - - - 0.2
20/02:00am 19.8 - 13.0 65 3.9 - - - - - - - 0.2
20/01:30am 20.5 - 13.0 62 4.3 - - - - - - - 0.2
20/01:00am 21.2 - 12.9 59 4.8 - - - - - - - 0.2
20/12:30am 21.5 - 12.6 57 5.1 - - - - - - - 0.2
20/12:00am 21.4 - 12.8 58 4.9 - - - - - - - 0.2
 
Date/Time
EDT
Temp
°C
App
Temp
°C
Dew
Point
°C
Rel
Hum
%
Delta-T
°C
Wind Press
QNH
hPa
Press
MSL
hPa
Rain since
9am
mm
Dir  Spd
km/h
Gust
km/h
Spd
kts
Gust
kts
19/11:30pm 20.0 - 13.2 65 3.9 - - - - - - - 0.2
19/11:00pm 18.6 - 13.9 74 2.7 - - - - - - - 0.2
19/10:30pm 18.4 - 14.1 76 2.5 - - - - - - - 0.2
19/10:00pm 19.6 - 13.5 68 3.5 - - - - - - - 0.2
19/09:30pm 20.9 - 12.6 59 4.7 - - - - - - - 0.2
19/09:00pm 22.1 - 12.1 53 5.7 - - - - - - - 0.2
19/08:30pm 23.3 - 12.0 49 6.4 - - - - - - - 0.2
19/08:00pm 24.0 - 11.7 46 7.0 - - - - - - - 0.2
19/07:30pm 25.0 - 11.2 42 7.8 - - - - - - - 0.2
19/07:00pm 25.8 - 11.6 41 8.1 - - - - - - - 0.2
19/06:30pm 25.8 - 12.3 43 7.8 - - - - - - - 0.2
19/06:00pm 26.2 - 11.9 41 8.3 - - - - - - - 0.2
19/05:30pm 25.9 - 11.6 40 8.2 - - - - - - - 0.2
19/05:00pm 26.2 - 12.6 43 7.9 - - - - - - - 0.2
19/04:30pm 25.6 - 12.8 45 7.5 - - - - - - - 0.2
19/04:00pm 26.3 - 13.1 44 7.8 - - - - - - - 0.2
19/03:30pm 25.7 - 13.5 46 7.2 - - - - - - - 0.2
19/03:00pm 23.8 - 13.9 54 5.8 - - - - - - - 0.2
19/02:30pm 23.5 - 15.0 59 5.1 - - - - - - - 0.2
19/02:00pm 21.8 - 14.9 65 4.1 - - - - - - - 0.2
19/01:30pm 22.6 - 14.2 59 5.0 - - - - - - - 0.2
19/01:00pm 20.9 - 13.8 64 4.1 - - - - - - - 0.2
19/12:30pm 20.1 - 14.2 69 3.4 - - - - - - - 0.2
19/12:00pm 19.8 - 14.8 73 2.9 - - - - - - - 0.0
19/11:30am 18.5 - 15.7 84 1.7 - - - - - - - 0.0
19/11:00am 17.4 - 15.2 87 1.3 - - - - - - - 0.0
19/10:30am 17.5 - 14.2 81 1.9 - - - - - - - 0.0
19/10:00am 17.9 - 14.0 78 2.2 - - - - - - - 0.0
19/09:30am 18.3 - 13.6 74 2.7 - - - - - - - 0.0
19/09:00am 18.6 - 13.0 70 3.2 - - - - - - - 2.8
19/08:30am 18.8 - 13.4 71 3.1 - - - - - - - 2.8
19/08:00am 18.3 - 13.6 74 2.7 - - - - - - - 2.8
19/07:30am 18.1 - 13.8 76 2.5 - - - - - - - 2.8
19/07:00am 18.2 - 13.7 75 2.6 - - - - - - - 2.8
19/06:30am 17.4 - 13.7 79 2.1 - - - - - - - 2.8
19/06:00am 17.3 - 14.2 82 1.8 - - - - - - - 2.8
19/05:30am 17.1 - 14.4 84 1.6 - - - - - - - 2.8
19/05:00am 16.8 - 14.4 86 1.4 - - - - - - - 2.8
19/04:30am 17.3 - 14.2 82 1.8 - - - - - - - 2.8
19/04:00am 17.9 - 14.4 80 2.0 - - - - - - - 2.8
19/03:30am 17.6 - 14.7 83 1.7 - - - - - - - 2.8
19/03:00am 17.1 - 14.7 86 1.4 - - - - - - - 2.8
19/02:30am 17.2 - 14.8 86 1.4 - - - - - - - 2.8
19/02:00am 17.3 - 15.1 87 1.3 - - - - - - - 2.8
19/01:30am 17.1 - 15.4 90 1.0 - - - - - - - 2.8
19/01:00am 17.1 - 15.4 90 1.0 - - - - - - - 2.8
19/12:30am 17.4 - 15.4 88 1.2 - - - - - - - 2.8
19/12:00am 17.1 - 15.3 89 1.1 - - - - - - - 2.8
 
Date/Time
EDT
Temp
°C
App
Temp
°C
Dew
Point
°C
Rel
Hum
%
Delta-T
°C
Wind Press
QNH
hPa
Press
MSL
hPa
Rain since
9am
mm
Dir  Spd
km/h
Gust
km/h
Spd
kts
Gust
kts
18/11:30pm 17.4 - 15.2 87 1.3 - - - - - - - 2.8
18/11:00pm 17.4 - 15.7 90 1.0 - - - - - - - 2.8
18/10:30pm 17.7 - 15.3 86 1.4 - - - - - - - 2.8
18/10:00pm 17.5 - 15.5 88 1.2 - - - - - - - 2.8
18/09:30pm 19.2 - 15.1 77 2.4 - - - - - - - 0.0
18/09:00pm 20.8 - 12.2 58 4.9 - - - - - - - 0.0
18/08:30pm 23.0 - 13.5 55 5.6 - - - - - - - 0.0
18/08:00pm 24.4 - 13.3 50 6.5 - - - - - - - 0.0
18/07:30pm 24.6 - 13.5 50 6.5 - - - - - - - 0.0
18/07:00pm 25.0 - 13.9 50 6.6 - - - - - - - 0.0
18/06:30pm 25.1 - 13.9 49 6.6 - - - - - - - 0.0
18/06:00pm 25.7 - 13.9 48 7.0 - - - - - - - 0.0
18/05:30pm 26.6 - 14.4 47 7.3 - - - - - - - 0.0
18/05:00pm 26.5 - 13.9 45 7.5 - - - - - - - 0.0
18/04:30pm 27.0 - 14.1 45 7.7 - - - - - - - 0.0
18/04:00pm 25.3 - 13.8 49 6.8 - - - - - - - 0.0
18/03:30pm 25.9 - 14.7 50 6.8 - - - - - - - 0.0
18/03:00pm 26.3 - 14.1 47 7.3 - - - - - - - 0.0
18/02:30pm 26.3 - 15.0 49 6.9 - - - - - - - 0.0
18/02:00pm 25.7 - 14.8 51 6.6 - - - - - - - 0.0
18/01:30pm 23.9 - 14.6 56 5.6 - - - - - - - 0.0
18/01:00pm 23.6 - 15.4 60 5.0 - - - - - - - 0.0
18/12:30pm 23.9 - 15.7 60 5.0 - - - - - - - 0.0
18/12:00pm 22.5 - 15.6 65 4.2 - - - - - - - 0.0
18/11:30am 22.2 - 15.5 66 4.0 - - - - - - - 0.0
18/11:00am 21.6 - 15.7 69 3.6 - - - - - - - 0.0
18/10:30am 21.0 - 15.1 69 3.5 - - - - - - - 0.0
18/10:00am 21.4 - 15.5 69 3.5 - - - - - - - 0.0
18/09:30am 20.5 - 15.3 72 3.1 - - - - - - - 0.0
18/09:00am 20.4 - 15.4 73 3.0 - - - - - - - 0.2
18/08:30am 20.0 - 15.4 75 2.7 - - - - - - - 0.2
18/08:00am 19.4 - 15.7 79 2.2 - - - - - - - 0.2
18/07:30am 18.2 - 16.0 87 1.3 - - - - - - - 0.2
18/07:00am 17.2 - 15.7 91 0.9 - - - - - - - 0.2
18/06:30am 16.4 - 15.4 94 0.6 - - - - - - - 0.2
18/06:00am 16.6 - 15.1 91 0.9 - - - - - - - 0.2
18/05:30am 16.8 - 15.0 89 1.0 - - - - - - - 0.2
18/05:00am 17.1 - 14.9 87 1.3 - - - - - - - 0.2
18/04:30am 17.4 - 14.9 85 1.5 - - - - - - - 0.2
18/04:00am 17.6 - 14.5 82 1.8 - - - - - - - 0.2
18/03:30am 17.7 - 14.4 81 1.9 - - - - - - - 0.2
18/03:00am 17.9 - 14.2 79 2.1 - - - - - - - 0.2
18/02:30am 18.2 - 14.1 77 2.4 - - - - - - - 0.2
18/02:00am 18.4 - 13.9 75 2.6 - - - - - - - 0.2
18/01:30am 18.9 - 13.7 72 3.0 - - - - - - - 0.2
18/01:00am 19.0 - 13.6 71 3.1 - - - - - - - 0.2
18/12:30am 19.3 - 13.5 69 3.3 - - - - - - - 0.2
18/12:00am 19.5 - 13.4 68 3.5 - - - - - - - 0.2
 
Date/Time
EDT
Temp
°C
App
Temp
°C
Dew
Point
°C
Rel
Hum
%
Delta-T
°C
Wind Press
QNH
hPa
Press
MSL
hPa
Rain since
9am
mm
Dir  Spd
km/h
Gust
km/h
Spd
kts
Gust
kts
17/11:30pm 19.6 - 13.3 67 3.6 - - - - - - - 0.2
17/11:00pm 19.8 - 13.5 67 3.6 - - - - - - - 0.2
17/10:30pm 19.8 - 13.5 67 3.6 - - - - - - - 0.2
17/10:00pm 20.0 - 13.7 67 3.6 - - - - - - - 0.2
17/09:30pm 20.2 - 13.6 66 3.8 - - - - - - - 0.2
17/09:00pm 20.5 - 13.5 64 4.0 - - - - - - - 0.2
17/08:30pm 21.0 - 13.7 63 4.2 - - - - - - - 0.2
17/08:00pm 21.6 - 13.2 59 4.9 - - - - - - - 0.2
17/07:30pm 22.7 - 12.9 54 5.7 - - - - - - - 0.2
17/07:00pm 24.4 - 12.4 47 6.9 - - - - - - - 0.2
17/06:30pm 26.2 - 12.6 43 7.9 - - - - - - - 0.2
17/06:00pm 26.0 - 14.5 49 6.9 - - - - - - - 0.2
17/05:30pm 26.3 - 15.4 51 6.7 - - - - - - - 0.2
17/05:00pm 28.1 - 14.0 42 8.5 - - - - - - - 0.2
17/04:30pm 26.4 - 16.1 53 6.4 - - - - - - - 0.2
17/04:00pm 23.9 - 16.9 65 4.3 - - - - - - - 0.2
17/03:30pm 26.3 - 17.1 57 5.8 - - - - - - - 0.2
17/03:00pm 26.1 - 17.2 58 5.6 - - - - - - - 0.2
17/02:30pm 26.0 - 17.1 58 5.6 - - - - - - - 0.2
17/02:00pm 25.9 - 17.3 59 5.4 - - - - - - - 0.2
17/01:30pm 28.1 - 16.7 50 7.2 - - - - - - - 0.0

Other Formats:

Comma delimited format used in spreadsheet applications
http://www.bom.gov.au/fwo/IDN60801/IDN60801.94794.axf

JavaScript Object Notation format (JSON) in row-major order
http://www.bom.gov.au/fwo/IDN60801/IDN60801.94794.json